createdAt,value
2019-01-13T00:02:04.849Z,67.65
2019-01-13T00:04:36.494Z,67.63
2019-01-13T00:07:08.117Z,67.59
2019-01-13T00:09:39.903Z,67.59
2019-01-13T00:12:11.591Z,67.58
2019-01-13T00:14:43.203Z,67.57
2019-01-13T00:17:14.839Z,67.57
2019-01-13T00:19:46.573Z,67.54
2019-01-13T00:22:18.247Z,67.51
2019-01-13T00:24:49.907Z,67.51
2019-01-13T00:27:21.637Z,67.52
2019-01-13T00:29:53.287Z,67.51
2019-01-13T00:32:24.951Z,67.47
2019-01-13T00:34:56.612Z,67.47
2019-01-13T00:37:28.668Z,67.44
2019-01-13T00:40:01.027Z,67.44
2019-01-13T00:42:33.310Z,67.40
2019-01-13T00:45:06.825Z,67.44
2019-01-13T00:47:39.198Z,67.46
2019-01-13T00:50:13.754Z,67.42
2019-01-13T00:52:45.962Z,67.39
2019-01-13T00:55:18.693Z,67.38
2019-01-13T00:57:50.359Z,67.37
2019-01-13T01:00:26.862Z,67.37
2019-01-13T01:02:56.668Z,67.41
2019-01-13T01:05:28.588Z,67.41
2019-01-13T01:08:00.187Z,67.39
2019-01-13T01:10:31.924Z,67.37
2019-01-13T01:13:03.533Z,67.36
2019-01-13T01:15:35.286Z,67.38
2019-01-13T01:18:07.049Z,67.39
2019-01-13T01:20:38.717Z,67.39
2019-01-13T01:23:10.324Z,67.36
2019-01-13T01:25:42.168Z,67.35
2019-01-13T01:28:13.800Z,67.39
2019-01-13T01:30:45.501Z,67.44
2019-01-13T01:33:17.194Z,67.49
2019-01-13T01:35:48.834Z,67.48
2019-01-13T01:38:20.621Z,67.46
2019-01-13T01:40:53.104Z,67.44
2019-01-13T01:43:24.728Z,67.49
2019-01-13T01:45:56.324Z,67.49
2019-01-13T01:48:28.056Z,67.54
2019-01-13T01:50:59.630Z,67.55
2019-01-13T01:53:31.256Z,67.57
2019-01-13T01:56:03.601Z,67.59
2019-01-13T01:58:35.199Z,67.61
2019-01-13T02:01:07.570Z,67.65
2019-01-13T02:03:40.903Z,67.67
2019-01-13T02:06:12.648Z,67.65
2019-01-13T02:08:44.287Z,67.64
2019-01-13T02:11:16.535Z,67.61
2019-01-13T02:13:48.157Z,67.62
2019-01-13T02:16:20.047Z,67.60
2019-01-13T02:18:52.770Z,67.60
2019-01-13T02:21:24.778Z,67.58
2019-01-13T02:23:56.698Z,67.57
2019-01-13T02:26:28.488Z,67.56
2019-01-13T02:29:00.488Z,67.52
2019-01-13T02:31:32.094Z,67.45
2019-01-13T02:34:03.857Z,67.39
2019-01-13T02:36:35.460Z,67.37
2019-01-13T02:39:09.235Z,67.37
2019-01-13T02:41:41.006Z,67.36
2019-01-13T02:44:12.667Z,67.34
2019-01-13T02:46:44.719Z,67.32
2019-01-13T02:49:16.438Z,67.28
2019-01-13T02:51:48.149Z,67.29
2019-01-13T02:54:19.867Z,67.22
2019-01-13T02:56:51.575Z,67.20
2019-01-13T02:59:23.264Z,67.23
2019-01-13T03:01:54.937Z,67.24
2019-01-13T03:04:26.558Z,67.25
2019-01-13T03:06:58.377Z,67.26
2019-01-13T03:09:30.032Z,67.28
2019-01-13T03:12:01.751Z,67.30
2019-01-13T03:14:33.370Z,67.32
2019-01-13T03:17:05.017Z,67.38
2019-01-13T03:19:36.739Z,67.40
2019-01-13T03:22:09.316Z,67.40
2019-01-13T03:24:40.919Z,67.39
2019-01-13T03:27:12.560Z,67.35
2019-01-13T03:29:44.221Z,67.31
2019-01-13T03:32:15.860Z,67.30
2019-01-13T03:34:47.451Z,67.26
2019-01-13T03:37:19.966Z,67.20
2019-01-13T03:39:52.958Z,67.18
2019-01-13T03:42:24.575Z,67.16
2019-01-13T03:44:56.376Z,67.10
2019-01-13T03:47:28.101Z,67.09
2019-01-13T03:50:00.037Z,67.09
2019-01-13T03:52:31.757Z,67.07
2019-01-13T03:55:03.420Z,67.10
2019-01-13T03:57:35.066Z,67.11
2019-01-13T04:00:11.590Z,67.13
2019-01-13T04:02:43.211Z,67.17
2019-01-13T04:05:15.034Z,67.18
2019-01-13T04:07:47.523Z,67.20
2019-01-13T04:10:19.723Z,67.24
2019-01-13T04:12:51.460Z,67.25
2019-01-13T04:16:02.588Z,67.25
2019-01-13T04:18:34.229Z,67.26
2019-01-13T04:21:05.891Z,67.29
2019-01-13T04:23:37.697Z,67.31
2019-01-13T04:26:09.298Z,67.35
2019-01-13T04:28:41.027Z,67.34
2019-01-13T04:31:12.621Z,67.34
2019-01-13T04:33:44.255Z,67.30
2019-01-13T04:36:15.860Z,67.26
2019-01-13T04:38:48.428Z,67.25
2019-01-13T04:41:20.740Z,67.21
2019-01-13T04:45:09.593Z,67.24
2019-01-13T04:47:41.214Z,67.28
2019-01-13T04:50:12.909Z,67.28
2019-01-13T04:52:45.012Z,67.29
2019-01-13T04:55:16.787Z,67.30
2019-01-13T04:57:49.178Z,67.32
2019-01-13T05:00:21.488Z,67.36
2019-01-13T05:02:53.129Z,67.39
2019-01-13T05:05:24.755Z,67.39
2019-01-13T05:07:56.356Z,67.40
2019-01-13T05:10:28.087Z,67.40
2019-01-13T05:13:00.466Z,67.40
2019-01-13T05:15:32.131Z,67.44
2019-01-13T05:18:03.817Z,67.48
2019-01-13T05:20:35.779Z,67.50
2019-01-13T05:23:07.376Z,67.53
2019-01-13T05:25:39.069Z,67.57
2019-01-13T05:28:10.719Z,67.63
2019-01-13T05:30:42.427Z,67.66
2019-01-13T05:33:14.025Z,67.68
2019-01-13T05:35:45.733Z,67.71
2019-01-13T05:38:17.325Z,67.67
2019-01-13T05:40:49.476Z,67.69
2019-01-13T05:43:21.135Z,67.67
2019-01-13T05:45:52.779Z,67.65
2019-01-13T05:48:24.442Z,67.63
2019-01-13T05:50:56.191Z,67.60
2019-01-13T05:53:27.781Z,67.60
2019-01-13T05:56:00.263Z,67.58
2019-01-13T05:58:31.963Z,67.58
2019-01-13T06:01:03.660Z,67.57
2019-01-13T06:03:35.283Z,67.58
2019-01-13T06:06:07.000Z,67.59
2019-01-13T06:08:38.735Z,67.59
2019-01-13T06:11:10.322Z,67.59
2019-01-13T06:13:42.093Z,67.62
2019-01-13T06:16:13.747Z,67.60
2019-01-13T06:18:45.454Z,67.60
2019-01-13T06:21:17.073Z,67.63
2019-01-13T06:23:48.942Z,67.64
2019-01-13T06:26:20.894Z,67.64
2019-01-13T06:28:53.014Z,67.64
2019-01-13T06:31:24.852Z,67.64
2019-01-13T06:33:56.580Z,67.66
2019-01-13T06:36:28.343Z,67.64
2019-01-13T06:39:00.054Z,67.66
2019-01-13T06:41:32.348Z,67.68
2019-01-13T06:44:04.237Z,67.68
2019-01-13T06:46:35.851Z,67.68
2019-01-13T06:49:07.914Z,67.65
2019-01-13T06:51:39.580Z,67.61
2019-01-13T06:54:11.276Z,67.57
2019-01-13T06:56:46.046Z,67.54
2019-01-13T06:59:21.759Z,67.48
2019-01-13T07:02:03.338Z,67.43
2019-01-13T07:04:36.806Z,67.41
2019-01-13T07:07:10.633Z,67.41
2019-01-13T07:09:45.981Z,67.37
2019-01-13T07:12:19.477Z,67.35
2019-01-13T07:14:55.172Z,67.32
2019-01-13T07:17:28.289Z,67.33
2019-01-13T07:20:00.604Z,67.31
2019-01-13T07:22:37.987Z,67.29
2019-01-13T07:25:10.832Z,67.27
2019-01-13T07:27:44.567Z,67.30
2019-01-13T07:30:26.394Z,67.35
2019-01-13T07:32:58.061Z,67.40
2019-01-13T07:35:31.273Z,67.40
2019-01-13T07:38:06.624Z,67.41
2019-01-13T07:40:49.844Z,67.39
2019-01-13T07:43:21.567Z,67.41
2019-01-13T07:45:53.512Z,67.43
2019-01-13T07:48:29.039Z,67.45
2019-01-13T07:51:03.726Z,67.47
2019-01-13T07:53:41.590Z,67.43
2019-01-13T07:56:20.475Z,67.39
2019-01-13T07:58:55.321Z,67.41
2019-01-13T08:01:27.206Z,67.40
2019-01-13T08:04:08.917Z,67.40
2019-01-13T08:06:42.358Z,67.37
2019-01-13T08:09:14.093Z,67.38
2019-01-13T08:11:45.800Z,67.39
2019-01-13T08:14:17.459Z,67.43
2019-01-13T08:16:49.199Z,67.46
2019-01-13T08:19:20.853Z,67.50
2019-01-13T08:21:52.538Z,67.53
2019-01-13T08:24:24.263Z,67.57
2019-01-13T08:26:56.898Z,67.59
2019-01-13T08:29:28.977Z,67.64
2019-01-13T08:32:00.762Z,67.72
2019-01-13T08:34:32.582Z,67.84
2019-01-13T08:37:04.257Z,67.95
2019-01-13T08:39:36.681Z,68.01
2019-01-13T08:42:08.490Z,68.07
2019-01-13T08:44:40.147Z,68.11
2019-01-13T08:47:11.729Z,68.15
2019-01-13T08:49:43.493Z,68.22
2019-01-13T08:52:16.672Z,68.27
2019-01-13T08:54:50.327Z,68.29
2019-01-13T08:57:22.147Z,68.38
2019-01-13T08:59:53.826Z,68.47
2019-01-13T09:02:32.040Z,68.58
2019-01-13T09:05:00.269Z,68.64
2019-01-13T09:07:31.947Z,68.70
2019-01-13T09:10:03.849Z,68.71
2019-01-13T09:12:35.879Z,68.75
2019-01-13T09:15:11.352Z,68.77
2019-01-13T09:17:43.076Z,68.76
2019-01-13T09:20:21.176Z,68.76
2019-01-13T09:22:53.056Z,68.82
2019-01-13T09:25:24.849Z,68.85
2019-01-13T09:27:57.691Z,68.93
2019-01-13T09:30:30.835Z,69.01
2019-01-13T09:33:02.482Z,69.03
2019-01-13T09:35:34.238Z,69.07
2019-01-13T09:38:06.817Z,69.07
2019-01-13T09:40:39.345Z,69.07
2019-01-13T09:43:11.813Z,69.06
2019-01-13T09:45:43.517Z,69.04
2019-01-13T09:48:15.225Z,69.10
2019-01-13T09:50:46.991Z,69.10
2019-01-13T09:53:18.737Z,69.11
2019-01-13T09:55:50.431Z,69.12
2019-01-13T09:58:22.736Z,69.12
2019-01-13T10:00:54.510Z,69.18
2019-01-13T10:03:26.336Z,69.21
2019-01-13T10:05:58.053Z,69.20
2019-01-13T10:08:29.883Z,69.22
2019-01-13T10:11:01.571Z,69.25
2019-01-13T10:13:33.445Z,69.27
2019-01-13T10:16:05.217Z,69.33
2019-01-13T10:18:36.939Z,69.36
2019-01-13T10:21:08.593Z,69.35
2019-01-13T10:23:40.547Z,69.37
2019-01-13T10:26:12.306Z,69.36
2019-01-13T10:28:44.034Z,69.35
2019-01-13T10:31:15.977Z,69.36
2019-01-13T10:33:47.764Z,69.40
2019-01-13T10:36:19.613Z,69.40
2019-01-13T10:38:58.901Z,69.39
2019-01-13T10:41:31.390Z,69.42
2019-01-13T10:44:09.988Z,69.40
2019-01-13T10:46:44.875Z,69.42
2019-01-13T10:49:26.089Z,69.41
2019-01-13T10:51:56.028Z,69.40
2019-01-13T10:54:32.176Z,69.39
2019-01-13T10:57:02.509Z,69.41
2019-01-13T10:59:39.549Z,69.44
2019-01-13T11:02:14.974Z,69.45
2019-01-13T11:04:46.802Z,69.48
2019-01-13T11:07:20.485Z,69.48
2019-01-13T11:09:52.377Z,69.49
2019-01-13T11:12:24.044Z,69.48
2019-01-13T11:14:55.756Z,69.53
2019-01-13T11:17:27.375Z,69.56
2019-01-13T11:19:59.879Z,69.58
2019-01-13T11:22:31.543Z,69.60
2019-01-13T11:25:03.697Z,69.60
2019-01-13T11:27:35.541Z,69.61
2019-01-13T11:30:11.913Z,69.63
2019-01-13T11:32:43.708Z,69.64
2019-01-13T11:35:15.805Z,69.63
2019-01-13T11:37:48.098Z,69.61
2019-01-13T11:40:25.720Z,69.57
2019-01-13T11:42:57.478Z,69.54
2019-01-13T11:45:29.141Z,69.56
2019-01-13T11:48:00.915Z,69.59
2019-01-13T11:50:32.713Z,69.61
2019-01-13T11:53:04.751Z,69.61
2019-01-13T11:55:36.508Z,69.62
2019-01-13T11:58:08.402Z,69.67
2019-01-13T12:00:46.429Z,69.69
2019-01-13T12:03:18.859Z,69.76
2019-01-13T12:05:50.566Z,69.81
2019-01-13T12:08:22.304Z,69.89
2019-01-13T12:10:54.006Z,69.90
2019-01-13T12:13:26.471Z,69.94
2019-01-13T12:15:59.591Z,69.96
2019-01-13T12:18:31.617Z,70.00
2019-01-13T12:21:05.303Z,70.00
2019-01-13T12:23:39.535Z,70.01
2019-01-13T12:26:11.470Z,70.03
2019-01-13T12:28:46.097Z,70.01
2019-01-13T12:31:28.127Z,70.02
2019-01-13T12:34:09.079Z,70.06
2019-01-13T12:36:42.690Z,70.09
2019-01-13T12:39:20.271Z,70.12
2019-01-13T12:41:57.897Z,70.11
2019-01-13T12:44:32.484Z,70.14
2019-01-13T12:47:06.939Z,70.14
2019-01-13T12:49:46.395Z,70.14
2019-01-13T12:52:23.680Z,70.13
2019-01-13T12:55:01.576Z,70.12
2019-01-13T12:57:37.058Z,70.14
2019-01-13T13:00:15.651Z,70.17
2019-01-13T13:02:48.095Z,70.15
2019-01-13T13:05:25.774Z,70.14
2019-01-13T13:08:03.561Z,70.16
2019-01-13T13:10:48.090Z,70.15
2019-01-13T13:13:19.820Z,70.20
2019-01-13T13:15:51.514Z,70.21
2019-01-13T13:18:23.247Z,70.26
2019-01-13T13:20:55.400Z,70.21
2019-01-13T13:23:27.404Z,70.24
2019-01-13T13:25:59.234Z,70.24
2019-01-13T13:28:30.988Z,70.25
2019-01-13T13:31:02.747Z,70.25
2019-01-13T13:33:38.656Z,70.30
2019-01-13T13:36:10.216Z,70.34
2019-01-13T13:38:41.922Z,70.34
2019-01-13T13:41:14.207Z,70.35
2019-01-13T13:43:43.506Z,70.33
2019-01-13T13:46:15.232Z,70.31
2019-01-13T13:48:46.986Z,70.29
2019-01-13T13:51:19.355Z,70.27
2019-01-13T13:53:51.795Z,70.28
2019-01-13T13:56:23.494Z,70.29
2019-01-13T13:58:55.275Z,70.30
2019-01-13T14:01:27.066Z,70.32
2019-01-13T14:03:58.874Z,70.47
2019-01-13T14:06:30.577Z,70.48
2019-01-13T14:09:03.701Z,70.54
2019-01-13T14:11:35.435Z,70.59
2019-01-13T14:14:07.869Z,70.60
2019-01-13T14:16:39.704Z,70.60
2019-01-13T14:19:11.821Z,70.65
2019-01-13T14:21:43.556Z,70.68
2019-01-13T14:24:15.974Z,70.74
2019-01-13T14:26:47.749Z,70.76
2019-01-13T14:29:19.575Z,70.86
2019-01-13T14:31:51.318Z,70.82
2019-01-13T14:34:23.177Z,70.87
2019-01-13T14:36:54.968Z,70.88
2019-01-13T14:39:27.570Z,70.90
2019-01-13T14:42:00.139Z,70.90
2019-01-13T14:44:31.992Z,70.93
2019-01-13T14:47:03.759Z,70.93
2019-01-13T14:49:35.556Z,70.90
2019-01-13T14:52:07.576Z,70.91
2019-01-13T14:54:40.056Z,70.91
2019-01-13T14:57:11.871Z,70.87
2019-01-13T14:59:43.639Z,70.87
2019-01-13T15:02:15.446Z,70.89
2019-01-13T15:04:47.190Z,70.86
2019-01-13T15:07:18.918Z,70.87
2019-01-13T15:09:51.038Z,70.86
2019-01-13T15:12:26.461Z,70.89
2019-01-13T15:14:58.591Z,70.94
2019-01-13T15:17:30.374Z,71.01
2019-01-13T15:20:02.175Z,71.10
2019-01-13T15:22:33.937Z,71.09
2019-01-13T15:25:07.137Z,71.10
2019-01-13T15:27:39.055Z,71.14
2019-01-13T15:30:21.268Z,71.12
2019-01-13T15:32:53.041Z,71.10
2019-01-13T15:35:24.750Z,71.08
2019-01-13T15:37:56.504Z,71.05
2019-01-13T15:40:30.123Z,71.02
2019-01-13T15:43:01.940Z,71.05
2019-01-13T15:45:33.791Z,71.03
2019-01-13T15:48:06.350Z,71.06
2019-01-13T15:50:38.008Z,71.07
2019-01-13T15:53:09.663Z,71.02
2019-01-13T15:55:41.434Z,71.06
2019-01-13T15:58:14.122Z,71.05
2019-01-13T16:00:45.919Z,71.03
2019-01-13T16:03:17.633Z,71.03
2019-01-13T16:05:49.660Z,71.00
2019-01-13T16:08:21.410Z,71.00
2019-01-13T16:10:53.170Z,71.01
2019-01-13T16:13:25.012Z,71.01
2019-01-13T16:15:56.786Z,70.99
2019-01-13T16:18:28.738Z,71.01
2019-01-13T16:21:00.625Z,71.00
2019-01-13T16:23:32.484Z,71.00
2019-01-13T16:26:04.277Z,71.00
2019-01-13T16:28:36.152Z,71.01
2019-01-13T16:31:08.333Z,71.04
2019-01-13T16:33:40.142Z,71.03
2019-01-13T16:36:11.960Z,71.04
2019-01-13T16:38:43.645Z,71.05
2019-01-13T16:41:16.661Z,71.04
2019-01-13T16:43:48.470Z,71.07
2019-01-13T16:46:20.766Z,71.06
2019-01-13T16:48:52.625Z,71.06
2019-01-13T16:51:24.502Z,71.05
2019-01-13T16:53:56.219Z,71.05
2019-01-13T16:56:28.079Z,71.08
2019-01-13T16:58:59.777Z,71.10
2019-01-13T17:01:31.777Z,71.08
2019-01-13T17:04:03.510Z,71.14
2019-01-13T17:06:35.367Z,71.19
2019-01-13T17:09:12.188Z,71.23
2019-01-13T17:11:43.894Z,71.25
2019-01-13T17:14:16.870Z,71.22
2019-01-13T17:16:48.801Z,71.24
2019-01-13T17:19:20.565Z,71.24
2019-01-13T17:21:52.247Z,71.20
2019-01-13T17:24:24.031Z,71.20
2019-01-13T17:26:56.338Z,71.20
2019-01-13T17:29:28.140Z,71.21
2019-01-13T17:32:00.095Z,71.24
2019-01-13T17:34:35.820Z,71.25
2019-01-13T17:37:05.501Z,71.22
2019-01-13T17:39:37.206Z,71.21
2019-01-13T17:42:09.750Z,71.20
2019-01-13T17:44:41.588Z,71.18
2019-01-13T17:47:13.498Z,71.21
2019-01-13T17:49:45.158Z,71.20
2019-01-13T17:52:18.126Z,71.21
2019-01-13T17:54:49.923Z,71.20
2019-01-13T17:57:21.732Z,71.18
2019-01-13T17:59:53.503Z,71.16
2019-01-13T18:02:25.470Z,71.16
2019-01-13T18:04:57.329Z,71.17
2019-01-13T18:07:29.098Z,71.19
2019-01-13T18:10:00.850Z,71.28
2019-01-13T18:12:32.565Z,71.32
2019-01-13T18:15:04.709Z,71.35
2019-01-13T18:17:36.361Z,71.37
2019-01-13T18:20:13.612Z,71.40
2019-01-13T18:22:45.507Z,71.40
2019-01-13T18:25:17.223Z,71.48
2019-01-13T18:27:49.551Z,71.50
2019-01-13T18:30:24.009Z,71.53
2019-01-13T18:32:56.060Z,71.55
2019-01-13T18:35:28.113Z,71.56
2019-01-13T18:37:59.864Z,71.56
2019-01-13T18:40:32.367Z,71.55
2019-01-13T18:43:04.217Z,71.55
2019-01-13T18:45:35.989Z,71.54
2019-01-13T18:48:07.811Z,71.55
2019-01-13T18:50:39.690Z,71.55
2019-01-13T18:53:14.691Z,71.55
2019-01-13T18:55:46.454Z,71.57
2019-01-13T18:58:18.211Z,71.56
2019-01-13T19:00:50.018Z,71.54
2019-01-13T19:03:21.724Z,71.52
2019-01-13T19:05:53.697Z,71.49
2019-01-13T19:08:26.385Z,71.50
2019-01-13T19:11:32.943Z,71.49
2019-01-13T19:14:55.764Z,71.48
2019-01-13T19:17:29.031Z,71.46
2019-01-13T19:20:17.436Z,71.42
2019-01-13T19:22:56.176Z,71.42
2019-01-13T19:25:31.190Z,71.40
2019-01-13T19:28:03.110Z,71.38
2019-01-13T19:30:35.290Z,71.40
2019-01-13T19:33:07.152Z,71.37
2019-01-13T19:35:38.895Z,71.38
2019-01-13T19:38:10.778Z,71.35
2019-01-13T19:40:43.861Z,71.33
2019-01-13T19:43:15.870Z,71.29
2019-01-13T19:45:47.672Z,71.27
2019-01-13T19:48:19.507Z,71.23
2019-01-13T19:50:51.267Z,71.17
2019-01-13T19:53:23.560Z,71.13
2019-01-13T19:55:55.404Z,71.10
2019-01-13T19:58:27.216Z,71.05
2019-01-13T20:01:00.756Z,71.02
2019-01-13T20:03:32.512Z,70.98
2019-01-13T20:06:04.456Z,70.93
2019-01-13T20:08:36.465Z,70.94
2019-01-13T20:11:08.280Z,70.95
2019-01-13T20:13:40.128Z,70.93
2019-01-13T20:16:12.234Z,70.98
2019-01-13T20:18:43.999Z,71.00
2019-01-13T20:21:16.068Z,70.96
2019-01-13T20:23:48.058Z,70.99
2019-01-13T20:26:19.959Z,71.00
2019-01-13T20:28:51.721Z,70.95
2019-01-13T20:31:24.332Z,70.97
2019-01-13T20:33:56.157Z,70.95
2019-01-13T20:36:27.904Z,71.02
2019-01-13T20:38:59.677Z,71.15
2019-01-13T20:41:32.304Z,71.38
2019-01-13T20:44:04.078Z,71.57
2019-01-13T20:46:35.873Z,71.70
2019-01-13T20:49:07.807Z,71.85
2019-01-13T20:51:41.281Z,71.91
2019-01-13T20:54:13.023Z,72.06
2019-01-13T20:56:44.739Z,72.21
2019-01-13T20:59:16.589Z,72.32
2019-01-13T21:01:48.406Z,72.42
2019-01-13T21:04:20.137Z,72.46
2019-01-13T21:06:51.923Z,72.56
2019-01-13T21:09:23.672Z,72.64
2019-01-13T21:11:55.531Z,72.69
2019-01-13T21:14:27.250Z,72.72
2019-01-13T21:16:59.040Z,72.76
2019-01-13T21:19:31.334Z,72.82
2019-01-13T21:22:03.147Z,72.87
2019-01-13T21:24:37.807Z,72.94
2019-01-13T21:27:09.558Z,73.00
2019-01-13T21:29:41.307Z,73.04
2019-01-13T21:32:13.152Z,73.11
2019-01-13T21:34:45.027Z,73.12
2019-01-13T21:37:16.823Z,73.18
2019-01-13T21:39:48.503Z,73.21
2019-01-13T21:42:21.048Z,73.25
2019-01-13T21:44:52.709Z,73.26
2019-01-13T21:47:24.647Z,73.27
2019-01-13T21:49:56.639Z,73.24
2019-01-13T21:52:28.379Z,73.20
2019-01-13T21:55:00.171Z,73.18
2019-01-13T21:57:31.842Z,73.18
2019-01-13T22:00:04.282Z,73.18
2019-01-13T22:02:36.229Z,73.18
2019-01-13T22:05:09.515Z,73.18
2019-01-13T22:07:41.240Z,73.18
2019-01-13T22:10:16.395Z,73.20
2019-01-13T22:12:48.152Z,73.20
2019-01-13T22:15:20.972Z,73.17
2019-01-13T22:17:52.700Z,73.16
2019-01-13T22:20:25.032Z,73.14
2019-01-13T22:22:56.695Z,73.13
2019-01-13T22:25:28.447Z,73.14
2019-01-13T22:28:00.099Z,73.17
2019-01-13T22:30:31.758Z,73.21
2019-01-13T22:33:03.460Z,73.20
2019-01-13T22:35:35.247Z,73.20
2019-01-13T22:38:07.270Z,73.16
2019-01-13T22:40:39.125Z,73.15
2019-01-13T22:43:11.515Z,73.16
2019-01-13T22:45:43.275Z,73.17
2019-01-13T22:48:14.918Z,73.17
2019-01-13T22:50:46.669Z,73.15
2019-01-13T22:53:18.734Z,73.15
2019-01-13T22:55:50.431Z,73.15
2019-01-13T22:58:22.142Z,73.20
2019-01-13T23:01:16.962Z,73.22
2019-01-13T23:03:49.137Z,73.31
2019-01-13T23:06:20.912Z,73.39
2019-01-13T23:08:52.646Z,73.41
2019-01-13T23:11:24.484Z,73.39
2019-01-13T23:17:02.742Z,73.36
2019-01-13T23:19:34.520Z,73.38
2019-01-13T23:22:06.330Z,73.36
2019-01-13T23:24:38.282Z,73.38
2019-01-13T23:27:10.178Z,73.37
2019-01-13T23:29:41.883Z,73.32
2019-01-13T23:32:13.583Z,73.28
2019-01-13T23:34:45.679Z,73.25
2019-01-13T23:37:19.233Z,73.13
2019-01-13T23:39:50.896Z,73.00
2019-01-13T23:42:23.355Z,72.85
2019-01-13T23:44:55.126Z,72.71
2019-01-13T23:47:26.851Z,72.60
2019-01-13T23:49:58.609Z,72.55
2019-01-13T23:52:30.367Z,72.57
2019-01-13T23:55:02.040Z,72.64
2019-01-13T23:57:33.739Z,72.68
